createdAt,value
2022-11-24T00:00:18.315Z,1.55
2022-11-24T00:08:25.058Z,2.08
2022-11-24T00:11:00.720Z,1.35
2022-11-24T00:16:21.152Z,1.60
2022-11-24T00:21:40.153Z,2.10
2022-11-24T00:24:10.640Z,1.63
2022-11-24T00:26:38.999Z,1.92
2022-11-24T00:29:08.050Z,2.22
2022-11-24T00:31:38.929Z,2.00
2022-11-24T00:34:15.086Z,1.70
2022-11-24T00:36:43.970Z,1.50
2022-11-24T00:39:15.949Z,2.20
2022-11-24T00:41:44.747Z,1.67
2022-11-24T00:44:12.833Z,1.48
2022-11-24T00:46:42.011Z,1.42
2022-11-24T00:49:11.929Z,1.67
2022-11-24T00:51:40.201Z,2.05
2022-11-24T00:54:08.477Z,1.65
2022-11-24T00:59:06.160Z,1.42
2022-11-24T01:01:35.494Z,1.45
2022-11-24T01:04:05.960Z,2.28
2022-11-24T01:06:36.318Z,1.35
2022-11-24T01:09:04.672Z,2.10
2022-11-24T01:11:56.632Z,1.48
2022-11-24T01:14:25.670Z,1.27
2022-11-24T01:19:22.324Z,1.67
2022-11-24T01:21:50.654Z,1.20
2022-11-24T01:24:18.511Z,1.90
2022-11-24T01:26:48.513Z,2.42
2022-11-24T01:29:16.649Z,1.15
2022-11-24T01:31:45.615Z,2.17
2022-11-24T01:34:15.494Z,1.42
2022-11-24T01:36:47.365Z,1.77
2022-11-24T01:39:18.661Z,1.48
2022-11-24T01:41:46.397Z,1.20
2022-11-24T01:44:29.395Z,1.35
2022-11-24T01:47:07.785Z,1.35
2022-11-24T01:49:44.376Z,1.42
2022-11-24T01:52:50.223Z,1.67
2022-11-24T01:55:25.043Z,1.38
2022-11-24T01:57:59.714Z,1.58
2022-11-24T02:00:29.108Z,2.10
2022-11-24T02:03:00.028Z,1.92
2022-11-24T02:05:39.595Z,1.45
2022-11-24T02:08:33.220Z,1.80
2022-11-24T02:11:06.037Z,1.42
2022-11-24T02:13:40.022Z,1.98
2022-11-24T02:16:10.874Z,1.52
2022-11-24T02:18:41.515Z,1.83
2022-11-24T02:21:12.269Z,1.45
2022-11-24T02:23:49.196Z,1.70
2022-11-24T02:26:43.625Z,1.33
2022-11-24T02:29:13.601Z,1.67
2022-11-24T02:31:50.013Z,1.48
2022-11-24T02:34:18.593Z,1.67
2022-11-24T02:36:46.904Z,1.90
2022-11-24T02:41:47.634Z,3.40
2022-11-24T02:44:17.242Z,3.03
2022-11-24T02:46:45.748Z,2.72
2022-11-24T02:49:13.981Z,2.08
2022-11-24T02:51:43.036Z,1.27
2022-11-24T02:56:53.046Z,2.22
2022-11-24T02:59:20.972Z,2.20
2022-11-24T03:01:49.221Z,3.42
2022-11-24T03:04:19.228Z,2.03
2022-11-24T03:06:47.328Z,1.35
2022-11-24T03:09:16.456Z,1.88
2022-11-24T03:11:44.711Z,1.58
2022-11-24T03:14:13.255Z,1.98
2022-11-24T03:16:42.040Z,1.92
2022-11-24T03:19:10.373Z,2.80
2022-11-24T03:21:40.932Z,1.58
2022-11-24T03:24:10.036Z,1.98
2022-11-24T03:26:39.131Z,1.83
2022-11-24T03:29:07.131Z,2.10
2022-11-24T03:31:36.126Z,1.95
2022-11-24T03:34:06.758Z,1.65
2022-11-24T03:36:35.048Z,2.05
2022-11-24T03:39:06.177Z,1.90
2022-11-24T03:44:30.051Z,2.58
2022-11-24T03:46:58.244Z,2.17
2022-11-24T03:51:54.936Z,2.97
2022-11-24T03:54:32.090Z,2.08
2022-11-24T03:57:00.560Z,1.98
2022-11-24T04:01:58.696Z,1.92
2022-11-24T04:04:26.635Z,2.00
2022-11-24T04:09:24.361Z,2.60
2022-11-24T04:12:11.931Z,2.22
2022-11-24T04:14:39.901Z,2.03
2022-11-24T04:17:08.064Z,2.00
2022-11-24T04:25:04.323Z,2.05
2022-11-24T04:27:38.722Z,2.20
2022-11-24T04:30:07.547Z,2.60
2022-11-24T04:32:37.750Z,2.08
2022-11-24T04:35:07.582Z,2.38
2022-11-24T04:37:37.571Z,2.38
2022-11-24T04:40:06.589Z,2.50
2022-11-24T04:42:35.984Z,1.83
2022-11-24T04:45:05.484Z,1.60
2022-11-24T04:47:36.439Z,1.92
2022-11-24T04:50:07.803Z,2.25
2022-11-24T04:52:38.411Z,2.42
2022-11-24T04:55:09.454Z,2.75
2022-11-24T04:57:37.934Z,2.40
2022-11-24T05:00:06.498Z,2.72
2022-11-24T05:02:34.817Z,2.05
2022-11-24T05:05:03.417Z,2.10
2022-11-24T05:07:37.289Z,2.25
2022-11-24T05:10:24.617Z,2.42
2022-11-24T05:12:58.250Z,2.33
2022-11-24T05:15:27.676Z,2.38
2022-11-24T05:17:57.976Z,4.22
2022-11-24T05:20:27.467Z,2.50
2022-11-24T05:22:55.859Z,2.55
2022-11-24T05:25:23.810Z,2.33
2022-11-24T05:27:51.820Z,2.83
2022-11-24T05:30:21.403Z,2.38
2022-11-24T05:32:49.416Z,2.67
2022-11-24T05:35:19.254Z,2.65
2022-11-24T05:37:47.922Z,3.35
2022-11-24T05:40:17.215Z,2.78
2022-11-24T05:42:48.133Z,3.15
2022-11-24T05:45:21.384Z,2.17
2022-11-24T05:47:53.964Z,2.92
2022-11-24T05:50:23.611Z,2.40
2022-11-24T05:52:51.738Z,3.60
2022-11-24T05:55:21.102Z,4.00
2022-11-24T05:57:57.468Z,3.05
2022-11-24T06:00:26.007Z,2.67
2022-11-24T06:02:58.676Z,2.80
2022-11-24T06:05:28.392Z,3.47
2022-11-24T06:07:56.958Z,2.78
2022-11-24T06:10:26.778Z,2.40
2022-11-24T06:12:54.723Z,2.75
2022-11-24T06:15:24.323Z,3.67
2022-11-24T06:17:58.732Z,2.90
2022-11-24T06:20:35.384Z,3.63
2022-11-24T06:23:03.017Z,3.88
2022-11-24T06:25:32.909Z,3.15
2022-11-24T06:28:05.089Z,3.65
2022-11-24T06:30:33.283Z,3.45
2022-11-24T06:33:01.916Z,6.30
2022-11-24T06:35:32.912Z,4.47
2022-11-24T06:38:01.744Z,4.03
2022-11-24T06:40:29.941Z,3.95
2022-11-24T06:45:29.245Z,2.92
2022-11-24T06:47:57.762Z,3.45
2022-11-24T06:50:32.093Z,3.65
2022-11-24T06:53:01.927Z,4.15
2022-11-24T06:55:30.141Z,4.82
2022-11-24T06:57:58.200Z,4.03
2022-11-24T07:00:26.342Z,4.35
2022-11-24T07:02:55.026Z,5.38
2022-11-24T07:05:23.320Z,6.95
2022-11-24T07:10:19.757Z,11.32
2022-11-24T07:12:47.806Z,10.38
2022-11-24T07:15:16.380Z,9.25
2022-11-24T07:17:46.115Z,5.55
2022-11-24T07:20:15.462Z,6.55
2022-11-24T07:22:43.770Z,5.10
2022-11-24T07:25:14.934Z,5.07
2022-11-24T07:27:43.521Z,3.85
2022-11-24T07:30:11.578Z,3.85
2022-11-24T07:35:09.274Z,3.65
2022-11-24T07:37:37.133Z,4.00
2022-11-24T07:40:08.286Z,2.55
2022-11-24T07:42:36.807Z,3.55
2022-11-24T07:45:05.196Z,4.57
2022-11-24T07:47:33.820Z,4.03
2022-11-24T07:50:03.934Z,3.35
2022-11-24T07:52:33.966Z,3.58
2022-11-24T07:55:03.077Z,4.45
2022-11-24T07:57:32.226Z,4.53
2022-11-24T08:04:56.387Z,4.30
2022-11-24T08:07:24.567Z,4.88
2022-11-24T08:09:57.237Z,6.10
2022-11-24T08:12:26.018Z,4.78
2022-11-24T08:14:54.667Z,4.47
2022-11-24T08:17:25.227Z,3.42
2022-11-24T08:19:53.305Z,4.35
2022-11-24T08:22:21.267Z,4.57
2022-11-24T08:24:51.286Z,3.75
2022-11-24T08:27:32.668Z,3.65
2022-11-24T08:30:00.858Z,4.28
2022-11-24T08:32:28.831Z,3.78
2022-11-24T08:37:42.158Z,4.38
2022-11-24T08:40:10.759Z,5.05
2022-11-24T08:42:41.067Z,3.75
2022-11-24T08:45:20.455Z,3.28
2022-11-24T08:47:56.664Z,4.15
2022-11-24T08:50:26.688Z,3.65
2022-11-24T08:52:54.774Z,4.63
2022-11-24T08:57:50.434Z,3.35
2022-11-24T09:00:23.512Z,3.97
2022-11-24T09:02:59.453Z,4.30
2022-11-24T09:05:53.314Z,4.90
2022-11-24T09:08:18.012Z,3.88
2022-11-24T09:10:47.279Z,5.10
2022-11-24T09:13:17.285Z,3.60
2022-11-24T09:15:48.149Z,4.13
2022-11-24T09:18:17.834Z,4.00
2022-11-24T09:23:19.805Z,3.85
2022-11-24T09:25:47.886Z,6.53
2022-11-24T09:30:44.394Z,5.45
2022-11-24T09:35:42.641Z,4.50
2022-11-24T09:38:14.698Z,4.38
2022-11-24T09:40:43.175Z,3.90
2022-11-24T09:43:34.181Z,3.75
2022-11-24T09:46:06.514Z,5.22
2022-11-24T09:48:44.266Z,4.10
2022-11-24T09:51:14.379Z,6.38
2022-11-24T09:53:53.193Z,3.88
2022-11-24T09:56:32.116Z,4.20
2022-11-24T09:59:02.030Z,4.32
2022-11-24T10:01:40.231Z,3.83
2022-11-24T10:04:31.702Z,4.15
2022-11-24T10:07:19.395Z,3.10
2022-11-24T10:13:28.055Z,3.33
2022-11-24T10:16:38.106Z,4.80
2022-11-24T10:19:37.479Z,4.78
2022-11-24T10:22:34.449Z,4.45
2022-11-24T10:25:48.699Z,3.47
2022-11-24T10:28:21.282Z,4.07
2022-11-24T10:30:50.175Z,4.82
2022-11-24T10:33:28.767Z,6.45
2022-11-24T10:36:14.806Z,4.22
2022-11-24T10:38:57.703Z,5.30
2022-11-24T10:41:50.582Z,3.60
2022-11-24T10:44:19.548Z,4.68
2022-11-24T10:46:49.117Z,5.55
2022-11-24T10:49:29.650Z,4.70
2022-11-24T10:52:23.068Z,3.95
2022-11-24T10:55:02.139Z,4.78
2022-11-24T10:57:39.712Z,4.90
2022-11-24T11:00:20.273Z,4.07
2022-11-24T11:02:52.639Z,4.38
2022-11-24T11:05:35.361Z,4.47
2022-11-24T11:08:32.392Z,6.63
2022-11-24T11:11:22.887Z,4.07
2022-11-24T11:14:03.450Z,3.72
2022-11-24T11:16:57.043Z,4.43
2022-11-24T11:20:00.286Z,3.65
2022-11-24T11:22:38.142Z,3.70
2022-11-24T11:25:42.339Z,3.70
2022-11-24T11:28:30.346Z,6.00
2022-11-24T11:31:20.552Z,3.30
2022-11-24T11:34:26.765Z,4.18
2022-11-24T11:37:02.610Z,4.10
2022-11-24T11:39:48.639Z,4.25
2022-11-24T11:43:01.184Z,4.10
2022-11-24T11:45:30.974Z,3.88
2022-11-24T11:48:40.627Z,3.80
2022-11-24T11:51:55.874Z,4.93
2022-11-24T11:55:06.297Z,3.47
2022-11-24T12:04:45.290Z,3.05
2022-11-24T12:07:14.418Z,5.10
2022-11-24T12:10:18.136Z,3.67
2022-11-24T12:20:35.059Z,4.53
2022-11-24T12:23:18.200Z,3.97
2022-11-24T12:26:10.572Z,3.65
2022-11-24T12:29:08.413Z,4.55
2022-11-24T12:32:53.369Z,3.35
2022-11-24T12:42:04.248Z,2.95
2022-11-24T12:44:51.383Z,2.90
2022-11-24T12:47:25.143Z,3.85
2022-11-24T12:50:05.203Z,3.50
2022-11-24T12:52:39.482Z,3.67
2022-11-24T12:55:16.567Z,6.38
2022-11-24T12:58:10.755Z,3.53
2022-11-24T13:01:14.705Z,4.50
2022-11-24T13:04:01.590Z,3.65
2022-11-24T13:06:43.075Z,4.50
2022-11-24T13:09:14.387Z,4.25
2022-11-24T13:11:44.768Z,3.05
2022-11-24T13:14:22.514Z,3.35
2022-11-24T13:17:27.836Z,5.38
2022-11-24T13:19:47.322Z,3.55
2022-11-24T13:22:23.708Z,3.25
2022-11-24T13:25:18.474Z,3.20
2022-11-24T13:27:53.286Z,3.70
2022-11-24T13:30:35.429Z,3.70
2022-11-24T13:33:16.614Z,3.05
2022-11-24T13:36:04.959Z,2.97
2022-11-24T13:41:42.922Z,0.82
2022-11-24T13:44:27.437Z,0.90
2022-11-24T13:50:07.939Z,0.60
2022-11-24T13:52:54.039Z,0.70
2022-11-24T13:55:27.354Z,1.35
2022-11-24T13:58:01.233Z,1.05
2022-11-24T14:00:31.179Z,0.75
2022-11-24T14:03:24.605Z,1.25
2022-11-24T14:05:54.688Z,0.70
2022-11-24T14:08:30.375Z,0.77
2022-11-24T14:11:03.533Z,1.10
2022-11-24T14:13:33.554Z,1.30
2022-11-24T14:16:01.774Z,1.10
2022-11-24T14:18:30.180Z,2.15
2022-11-24T14:21:19.163Z,0.95
2022-11-24T14:23:51.337Z,1.10
2022-11-24T14:26:42.230Z,1.20
2022-11-24T14:29:24.830Z,1.70
2022-11-24T14:32:04.077Z,1.90
2022-11-24T14:34:38.703Z,2.15
2022-11-24T14:37:15.729Z,2.10
2022-11-24T14:39:45.714Z,2.90
2022-11-24T14:42:16.628Z,2.50
2022-11-24T14:45:04.668Z,3.60
2022-11-24T14:50:12.151Z,2.25
2022-11-24T14:52:57.253Z,3.08
2022-11-24T14:55:34.630Z,2.30
2022-11-24T15:00:46.508Z,1.83
2022-11-24T15:03:22.902Z,2.05
2022-11-24T15:06:05.746Z,1.95
2022-11-24T15:08:43.543Z,1.50
2022-11-24T15:14:04.634Z,2.17
2022-11-24T15:16:33.884Z,2.42
2022-11-24T15:19:06.889Z,3.05
2022-11-24T15:21:37.357Z,2.92
2022-11-24T15:24:21.608Z,3.58
2022-11-24T15:26:50.769Z,4.93
2022-11-24T15:29:19.288Z,5.07
2022-11-24T15:31:52.909Z,4.57
2022-11-24T15:34:27.452Z,3.83
2022-11-24T15:36:56.919Z,3.75
2022-11-24T15:41:55.950Z,5.20
2022-11-24T15:44:27.159Z,5.50
2022-11-24T15:46:55.708Z,4.78
2022-11-24T15:49:27.702Z,4.72
2022-11-24T15:51:59.716Z,6.15
2022-11-24T15:54:35.296Z,4.53
2022-11-24T15:57:07.291Z,4.63
2022-11-24T15:59:36.095Z,3.90
2022-11-24T16:04:56.979Z,6.32
2022-11-24T16:07:27.592Z,5.88
2022-11-24T16:09:59.995Z,6.28
2022-11-24T16:12:33.025Z,5.15
2022-11-24T16:15:08.190Z,4.95
2022-11-24T16:17:42.626Z,4.18
2022-11-24T16:20:11.890Z,4.15
2022-11-24T16:22:47.602Z,4.72
2022-11-24T16:25:31.736Z,4.68
2022-11-24T16:31:39.947Z,5.95
2022-11-24T16:34:09.349Z,7.50
2022-11-24T16:43:29.955Z,3.50
2022-11-24T16:46:25.657Z,1.50
2022-11-24T16:48:56.663Z,2.47
2022-11-24T16:51:29.984Z,2.72
2022-11-24T16:54:02.701Z,4.50
2022-11-24T16:56:31.622Z,2.38
2022-11-24T16:58:59.508Z,3.17
2022-11-24T17:01:29.757Z,3.05
2022-11-24T17:03:58.004Z,3.50
2022-11-24T17:06:28.124Z,2.97
2022-11-24T17:09:00.397Z,3.50
2022-11-24T17:11:29.117Z,2.83
2022-11-24T17:13:58.589Z,1.83
2022-11-24T17:16:28.364Z,2.50
2022-11-24T17:19:00.265Z,2.40
2022-11-24T17:21:32.407Z,1.73
2022-11-24T17:24:05.232Z,1.85
2022-11-24T17:26:34.001Z,2.05
2022-11-24T17:29:03.299Z,2.03
2022-11-24T17:31:33.399Z,1.88
2022-11-24T17:34:08.843Z,2.08
2022-11-24T17:36:36.972Z,2.40
2022-11-24T17:41:38.343Z,2.58
2022-11-24T17:44:08.846Z,3.03
2022-11-24T17:46:38.312Z,3.05
2022-11-24T17:49:06.930Z,4.80
2022-11-24T17:51:35.495Z,3.97
2022-11-24T17:56:53.383Z,3.55
2022-11-24T17:59:21.231Z,3.33
2022-11-24T18:01:49.378Z,3.13
2022-11-24T18:04:17.398Z,3.65
2022-11-24T18:06:46.338Z,3.63
2022-11-24T18:09:17.589Z,3.67
2022-11-24T18:11:46.940Z,4.10
2022-11-24T18:14:35.082Z,3.35
2022-11-24T18:17:03.858Z,4.05
2022-11-24T18:19:32.004Z,4.72
2022-11-24T18:25:09.722Z,2.65
2022-11-24T18:27:45.404Z,2.85
2022-11-24T18:30:18.302Z,2.30
2022-11-24T18:32:47.258Z,2.03
2022-11-24T18:39:42.690Z,2.90
2022-11-24T18:42:15.897Z,3.83
2022-11-24T18:44:54.044Z,4.00
2022-11-24T18:47:26.466Z,4.85
2022-11-24T18:52:42.046Z,21.07
2022-11-24T18:55:13.174Z,12.60
2022-11-24T18:57:43.368Z,11.93
2022-11-24T19:03:13.303Z,7.78
2022-11-24T19:05:42.240Z,7.20
2022-11-24T19:08:13.093Z,7.00
2022-11-24T19:10:45.723Z,5.80
2022-11-24T19:13:14.457Z,6.80
2022-11-24T19:15:54.121Z,7.32
2022-11-24T19:18:32.867Z,6.90
2022-11-24T19:21:03.943Z,6.47
2022-11-24T19:24:05.780Z,6.20
2022-11-24T19:29:21.446Z,5.97
2022-11-24T19:31:50.745Z,5.68
2022-11-24T19:34:19.449Z,5.25
2022-11-24T19:36:48.103Z,4.53
2022-11-24T19:39:17.994Z,5.00
2022-11-24T19:41:46.598Z,5.55
2022-11-24T19:44:16.364Z,6.25
2022-11-24T19:46:45.259Z,6.70
2022-11-24T19:59:02.931Z,9.13
2022-11-24T20:01:37.943Z,10.23
2022-11-24T20:07:24.716Z,10.05
2022-11-24T20:10:18.491Z,6.78
2022-11-24T20:12:48.086Z,7.95
2022-11-24T20:15:19.043Z,10.25
2022-11-24T20:17:48.635Z,8.23
2022-11-24T20:20:18.483Z,7.05
2022-11-24T20:22:48.081Z,6.57
2022-11-24T20:35:08.964Z,4.65
2022-11-24T20:37:44.398Z,4.97
2022-11-24T20:40:22.677Z,6.00
2022-11-24T20:42:54.151Z,5.90
2022-11-24T20:45:21.982Z,5.88
2022-11-24T20:47:52.854Z,5.40
2022-11-24T20:50:21.110Z,5.65
2022-11-24T20:56:27.099Z,5.03
2022-11-24T20:59:06.125Z,5.60
2022-11-24T21:01:39.715Z,5.78
2022-11-24T21:07:18.589Z,7.22
2022-11-24T21:09:58.347Z,5.87
2022-11-24T21:15:32.379Z,5.00
2022-11-24T21:24:00.262Z,4.85
2022-11-24T21:26:28.645Z,5.10
2022-11-24T21:42:56.004Z,4.32
2022-11-24T21:45:23.948Z,3.90
2022-11-24T21:47:52.592Z,4.85
2022-11-24T21:50:22.109Z,5.65
2022-11-24T21:55:54.748Z,6.25
2022-11-24T21:58:23.142Z,6.13
2022-11-24T22:00:52.419Z,6.80
2022-11-24T22:03:22.404Z,6.43
2022-11-24T22:05:58.716Z,6.32
2022-11-24T22:08:28.515Z,7.00
2022-11-24T22:11:05.906Z,6.45
2022-11-24T22:13:36.186Z,6.40
2022-11-24T22:18:53.578Z,5.60
2022-11-24T22:21:36.915Z,5.47
2022-11-24T22:24:07.973Z,5.22
2022-11-24T22:26:38.640Z,5.07
2022-11-24T22:29:07.823Z,4.40
2022-11-24T22:31:35.709Z,4.85
2022-11-24T22:34:05.893Z,5.47
2022-11-24T22:36:34.056Z,4.35
2022-11-24T22:39:03.902Z,4.05
2022-11-24T22:41:34.615Z,4.07
2022-11-24T22:44:03.037Z,4.05
2022-11-24T22:46:32.212Z,4.63
2022-11-24T22:49:01.543Z,3.50
2022-11-24T22:51:34.628Z,3.55
2022-11-24T22:54:04.433Z,4.07
2022-11-24T22:56:33.431Z,3.90
2022-11-24T22:59:02.299Z,4.10
2022-11-24T23:01:31.144Z,3.95
2022-11-24T23:04:00.355Z,2.75
2022-11-24T23:06:34.745Z,3.17
2022-11-24T23:09:07.400Z,2.83
2022-11-24T23:11:38.567Z,3.50
2022-11-24T23:14:12.656Z,3.22
2022-11-24T23:16:45.255Z,3.20
2022-11-24T23:19:14.680Z,3.20
2022-11-24T23:24:11.903Z,3.65
2022-11-24T23:26:41.052Z,2.90
2022-11-24T23:29:10.183Z,2.08
2022-11-24T23:31:40.324Z,2.08
2022-11-24T23:34:10.214Z,2.75
2022-11-24T23:36:38.298Z,2.55
2022-11-24T23:39:08.887Z,2.53
2022-11-24T23:41:36.506Z,2.83
2022-11-24T23:44:04.676Z,2.97
2022-11-24T23:49:00.606Z,1.73
2022-11-24T23:53:58.566Z,2.10
2022-11-24T23:56:33.116Z,2.03
2022-11-24T23:59:02.533Z,2.80
